Time;durP1;ratioP1;P1;durP2;ratioP2;P2;SDS_P1;SDS_P2;PMS_P1;PMS_P2;Temp;Humidity;BMP_temperature;BMP_pressure;BME280_temperature;BME280_humidity;BME280_pressure;Samples;Min_cycle;Max_cycle;Signal;HPM_P1;HPM_P2
2022/02/17 00:01:48;;;;;;;2.42;1.60;;;;;;;8.80;98.00;97667.47;8214669;35;20153;-76
2022/02/17 00:06:51;;;;;;;1.77;1.52;;;;;;;8.80;96.29;97704.09;8210331;34;20525;-75
2022/02/17 00:11:54;;;;;;;4.65;1.52;;;;;;;8.71;95.07;97694.47;8210570;35;21060;-76
2022/02/17 00:16:59;;;;;;;3.50;1.60;;;;;;;8.71;92.26;97657.00;8211257;34;20475;-76
2022/02/17 00:22:02;;;;;;;2.25;1.27;;;;;;;8.80;90.23;97686.22;8266898;34;20156;-75
2022/02/17 00:27:05;;;;;;;5.25;1.67;;;;;;;8.73;87.82;97740.63;8265739;34;20678;-76
2022/02/17 00:32:10;;;;;;;5.20;1.63;;;;;;;8.98;87.69;97739.44;8243175;34;21044;-76
2022/02/17 00:37:13;;;;;;;6.13;2.20;;;;;;;8.89;85.78;97735.16;8268108;34;20184;-75
2022/02/17 00:42:17;;;;;;;4.22;2.20;;;;;;;9.02;83.56;97722.03;8264904;34;20568;-76
2022/02/17 00:47:21;;;;;;;6.07;1.88;;;;;;;8.90;80.18;97736.81;8240946;34;20458;-76
2022/02/17 00:52:26;;;;;;;5.50;1.60;;;;;;;9.09;76.82;97738.19;8265350;34;20198;-76
2022/02/17 00:57:29;;;;;;;7.13;2.53;;;;;;;9.33;75.32;97720.25;8240225;34;20557;-75
2022/02/17 01:02:34;;;;;;;5.00;1.83;;;;;;;9.47;74.43;97728.31;8260684;34;22579;-76
2022/02/17 01:07:37;;;;;;;5.07;1.90;;;;;;;9.27;73.52;97728.00;8265314;34;20167;-76
2022/02/17 01:12:40;;;;;;;9.63;3.20;;;;;;;9.41;72.06;97776.44;8268553;34;20649;-75
2022/02/17 01:17:44;;;;;;;3.47;1.90;;;;;;;8.32;80.75;97805.00;8266871;34;20222;-76
2022/02/17 01:22:49;;;;;;;4.80;1.60;;;;;;;7.01;85.47;97781.91;8264872;34;20144;-76
2022/02/17 01:27:53;;;;;;;7.43;2.30;;;;;;;7.01;84.04;97746.38;8266930;34;21870;-75
2022/02/17 01:32:58;;;;;;;5.75;2.25;;;;;;;7.95;81.91;97814.44;8265557;34;20192;-76
2022/02/17 01:38:02;;;;;;;4.80;1.70;;;;;;;6.57;81.65;97827.47;8244939;34;21037;-75
2022/02/17 01:43:05;;;;;;;2.95;1.38;;;;;;;6.60;79.82;97804.97;8245841;34;20516;-76
2022/02/17 01:48:10;;;;;;;4.72;1.50;;;;;;;6.34;78.56;97778.41;8267975;34;20528;-75
2022/02/17 01:53:16;;;;;;;2.92;1.27;;;;;;;6.29;77.85;97730.06;8266937;34;20248;-76
2022/02/17 01:58:20;;;;;;;1.25;1.10;;;;;;;6.36;75.39;97731.06;8244830;34;20585;-75
2022/02/17 02:03:25;;;;;;;3.63;1.10;;;;;;;6.75;75.20;97720.66;8243084;34;21104;-75
2022/02/17 02:08:36;;;;;;;3.45;1.90;;;;;;;7.00;74.21;97710.03;8261134;34;20542;-75
2022/02/17 02:13:41;;;;;;;4.43;1.52;;;;;;;6.99;74.38;97709.22;8242905;34;20148;-75
2022/02/17 02:18:45;;;;;;;4.40;1.58;;;;;;;7.28;75.16;97703.34;8251092;34;21638;-75
2022/02/17 02:23:50;;;;;;;6.28;2.10;;;;;;;7.67;76.03;97688.41;8257071;34;20152;-75
2022/02/17 02:28:54;;;;;;;5.55;2.22;;;;;;;7.75;76.13;97669.69;8268126;34;20167;-75
2022/02/17 02:33:57;;;;;;;6.45;3.25;;;;;;;8.24;75.25;97682.00;8266165;34;20531;-76
2022/02/17 02:39:03;;;;;;;6.90;2.22;;;;;;;8.54;75.18;97678.50;8249752;34;20776;-74
2022/02/17 02:44:29;;;;;;;6.00;2.22;;;;;;;7.21;84.33;97691.69;8213445;34;20171;-75
2022/02/17 02:49:37;;;;;;;4.07;1.95;;;;;;;6.92;89.89;97712.72;8265986;34;20196;-76
2022/02/17 02:54:42;;;;;;;1.27;1.05;;;;;;;6.98;93.89;97762.75;8265096;34;21025;-76
2022/02/17 02:59:45;;;;;;;10.68;3.08;;;;;;;6.60;94.57;97760.47;8243098;34;20498;-76
2022/02/17 03:04:55;;;;;;;6.05;2.70;;;;;;;4.75;99.22;97755.50;8244426;34;20931;-75
2022/02/17 03:10:01;;;;;;;0.40;0.40;;;;;;;4.72;100.00;97795.69;8264792;34;20984;-75
2022/02/17 03:15:09;;;;;;;11.23;4.07;;;;;;;5.26;100.00;97821.31;8264101;34;20564;-76
2022/02/17 03:20:12;;;;;;;9.30;2.88;;;;;;;5.85;100.00;97848.25;8243581;34;20231;-76
2022/02/17 03:25:18;;;;;;;11.30;3.50;;;;;;;6.01;98.03;97868.03;8267543;34;20237;-75
2022/02/17 03:30:24;;;;;;;6.55;3.00;;;;;;;5.88;91.47;97898.56;8232082;34;20582;-75
2022/02/17 03:35:27;;;;;;;8.48;2.85;;;;;;;5.93;92.70;97906.09;8261039;34;20174;-76
2022/02/17 03:40:31;;;;;;;8.38;2.20;;;;;;;5.01;92.72;97944.47;8259991;34;20452;-76
2022/02/17 03:45:36;;;;;;;13.00;5.43;;;;;;;4.11;98.66;97952.06;8259092;34;20435;-76
2022/02/17 03:50:44;;;;;;;16.95;3.22;;;;;;;2.87;98.75;97954.47;8236867;34;20561;-75
2022/02/17 03:55:51;;;;;;;1.52;0.95;;;;;;;2.27;100.00;97957.78;8264871;34;20140;-75
2022/02/17 04:00:55;;;;;;;13.82;4.15;;;;;;;-149.37;100.00;59372.97;8233526;34;20434;-75
2022/02/17 04:05:59;;;;;;;13.30;3.78;;;;;;;-149.37;100.00;59372.97;8246586;34;20207;-76
2022/02/17 04:11:04;;;;;;;13.73;3.10;;;;;;;-149.37;100.00;59372.97;8268694;34;20434;-75
2022/02/17 04:16:15;;;;;;;8.93;3.10;;;;;;;-149.37;100.00;59372.97;8235022;34;20151;-76
2022/02/17 04:21:37;;;;;;;7.93;2.45;;;;;;;-149.37;100.00;59372.97;8241029;34;20183;-76
2022/02/17 04:27:00;;;;;;;6.72;2.58;;;;;;;-149.37;100.00;59372.97;8263362;34;20908;-74
2022/02/17 04:32:09;;;;;;;8.48;3.03;;;;;;;-149.37;100.00;59372.97;8262424;34;20179;-75
2022/02/17 04:37:12;;;;;;;5.47;1.92;;;;;;;-149.37;100.00;59372.97;8262461;34;20153;-75
2022/02/17 04:42:19;;;;;;;5.53;2.10;;;;;;;-149.37;100.00;59372.97;8245977;34;21960;-74
2022/02/17 04:47:31;;;;;;;8.35;3.00;;;;;;;-149.37;100.00;59372.97;8245611;34;20154;-76
2022/02/17 04:52:34;;;;;;;9.60;3.20;;;;;;;-149.37;100.00;59372.97;8246840;34;20563;-75
2022/02/17 04:57:39;;;;;;;9.90;2.72;;;;;;;-149.37;100.00;59372.97;8266871;34;20927;-75
2022/02/17 05:02:43;;;;;;;5.63;2.80;;;;;;;-149.37;100.00;59372.97;8239294;34;20416;-76
2022/02/17 05:08:22;;;;;;;6.95;2.60;;;;;;;5.85;84.26;98146.63;8245440;34;22411;-76
2022/02/17 05:13:26;;;;;;;9.98;3.15;;;;;;;-149.37;100.00;59372.97;8267532;34;20215;-76
2022/02/17 05:18:30;;;;;;;6.95;2.20;;;;;;;5.56;82.59;98135.28;8268158;34;20171;-75
2022/02/17 05:23:35;;;;;;;8.20;2.63;;;;;;;5.75;76.20;98140.50;8265459;34;20603;-76
2022/02/17 05:28:58;;;;;;;9.80;2.58;;;;;;;6.37;72.55;98159.34;8244934;34;20446;-74
2022/02/17 05:34:07;;;;;;;9.23;2.60;;;;;;;6.40;70.33;98186.53;8268126;34;20159;-77
2022/02/17 05:39:17;;;;;;;8.40;2.88;;;;;;;5.60;73.56;98285.81;8245217;34;20978;-75
2022/02/17 05:44:32;;;;;;;7.35;2.50;;;;;;;4.33;80.83;98194.53;8264916;34;21935;-75
2022/02/17 05:49:35;;;;;;;7.63;2.47;;;;;;;4.94;79.01;98215.56;8264410;34;20546;-76
2022/02/17 05:54:38;;;;;;;9.85;2.83;;;;;;;5.48;77.38;98216.72;8266370;34;21136;-76
2022/02/17 05:59:44;;;;;;;11.02;2.92;;;;;;;5.63;76.95;98218.94;8263783;34;20419;-75
2022/02/17 06:04:50;;;;;;;9.80;3.08;;;;;;;5.71;75.12;98249.19;8265541;34;20448;-76
2022/02/17 06:09:53;;;;;;;5.43;2.53;;;;;;;5.84;70.51;98170.75;8269086;34;20462;-75
2022/02/17 06:14:58;;;;;;;7.55;2.58;;;;;;;6.18;67.02;98242.97;8280640;34;20544;-75
2022/02/17 06:20:01;;;;;;;8.73;2.55;;;;;;;6.12;67.34;98219.56;8280975;34;20259;-75
2022/02/17 06:25:05;;;;;;;9.82;2.65;;;;;;;6.29;67.03;98273.91;8264550;34;20752;-75
2022/02/17 06:30:11;;;;;;;10.52;2.65;;;;;;;6.31;66.02;98245.28;8239940;34;20523;-75
2022/02/17 06:35:16;;;;;;;4.82;1.73;;;;;;;6.13;64.09;98259.38;8262591;34;20190;-74
2022/02/17 06:40:20;;;;;;;4.85;2.30;;;;;;;6.34;64.01;98279.66;8257980;34;20625;-75
2022/02/17 06:45:25;;;;;;;8.80;2.80;;;;;;;6.27;65.34;98300.72;8256601;34;21889;-75
2022/02/17 06:50:28;;;;;;;9.02;2.70;;;;;;;6.25;64.33;98297.34;8254424;34;20167;-75
2022/02/17 06:55:31;;;;;;;7.45;3.10;;;;;;;6.44;64.22;98314.25;8253015;34;20498;-75
2022/02/17 07:00:38;;;;;;;8.65;4.18;;;;;;;6.24;64.31;98326.84;8253787;34;20585;-74
2022/02/17 07:05:42;;;;;;;11.80;3.35;;;;;;;6.29;64.53;98340.56;8254743;34;20963;-75
2022/02/17 07:10:59;;;;;;;7.90;2.97;;;;;;;6.54;64.18;98385.22;8260274;34;20156;-74
2022/02/17 07:16:04;;;;;;;9.02;2.72;;;;;;;6.50;65.39;98391.00;8265369;34;20413;-75
2022/02/17 07:21:07;;;;;;;10.13;2.80;;;;;;;6.30;65.55;98414.22;8264647;34;20156;-75
2022/02/17 07:26:14;;;;;;;17.27;3.65;;;;;;;6.39;65.55;98390.22;8266664;34;20442;-76
2022/02/17 07:31:24;;;;;;;5.55;2.15;;;;;;;6.40;65.11;98436.38;8259987;34;20183;-75
2022/02/17 07:36:27;;;;;;;10.32;3.20;;;;;;;6.71;65.25;98428.94;8288494;34;20450;-75
2022/02/17 07:41:30;;;;;;;8.60;3.50;;;;;;;6.40;65.02;98441.72;8275780;34;20566;-75
2022/02/17 07:46:37;;;;;;;5.05;2.47;;;;;;;6.24;63.70;98441.47;8253018;34;20191;-75
2022/02/17 07:51:40;;;;;;;6.60;3.13;;;;;;;6.35;63.89;98492.81;8274335;34;21868;-75
2022/02/17 07:56:43;;;;;;;4.55;2.13;;;;;;;6.56;61.63;98505.13;8274979;34;21089;-75
2022/02/17 08:01:48;;;;;;;5.40;2.30;;;;;;;6.62;62.10;98518.72;8269262;34;20958;-75
2022/02/17 08:06:52;;;;;;;5.20;2.63;;;;;;;6.36;61.69;98539.84;8270074;34;21216;-75
2022/02/17 08:11:55;;;;;;;7.32;1.98;;;;;;;6.50;61.63;98538.56;8271947;34;20431;-75
2022/02/17 08:17:00;;;;;;;6.30;1.67;;;;;;;6.77;60.26;98588.47;8268015;34;20449;-75
2022/02/17 08:22:04;;;;;;;7.43;2.13;;;;;;;6.56;60.87;98574.47;8266517;34;20144;-75
2022/02/17 08:27:07;;;;;;;6.07;1.95;;;;;;;6.77;60.79;98583.13;8265458;34;20195;-74
2022/02/17 08:32:11;;;;;;;6.22;2.35;;;;;;;6.82;60.60;98591.53;8267658;34;20179;-75
2022/02/17 08:37:14;;;;;;;9.43;2.80;;;;;;;6.43;61.36;98603.28;8265113;34;20487;-75
2022/02/17 08:42:18;;;;;;;3.92;1.88;;;;;;;6.24;62.68;98644.94;8264952;34;20976;-75
2022/02/17 08:47:22;;;;;;;6.20;2.25;;;;;;;6.35;62.21;98628.81;8259542;34;20155;-75
2022/02/17 08:52:25;;;;;;;8.40;2.20;;;;;;;6.34;59.84;98667.13;8255347;34;20626;-75
2022/02/17 08:57:28;;;;;;;8.23;2.25;;;;;;;6.54;59.93;98675.13;8257156;34;21004;-75
2022/02/17 09:02:33;;;;;;;4.70;1.88;;;;;;;6.43;58.98;98654.78;8264207;34;20528;-75
2022/02/17 09:07:36;;;;;;;5.55;2.20;;;;;;;7.08;58.03;98692.41;8273371;34;20218;-75
2022/02/17 09:12:40;;;;;;;5.63;1.67;;;;;;;6.82;58.09;98689.44;8281692;34;20270;-75
2022/02/17 09:17:46;;;;;;;2.67;1.73;;;;;;;6.54;57.75;98718.66;8270046;34;20191;-75
2022/02/17 09:22:49;;;;;;;5.28;1.75;;;;;;;7.25;57.29;98731.72;8268030;34;20564;-75
2022/02/17 09:27:52;;;;;;;5.20;1.70;;;;;;;7.09;56.69;98766.16;8262832;34;20449;-76
2022/02/17 09:32:57;;;;;;;6.18;2.22;;;;;;;6.84;58.25;98736.38;8261808;34;20446;-75
2022/02/17 09:38:02;;;;;;;4.32;1.65;;;;;;;6.92;56.80;98772.22;8260684;34;20434;-75
2022/02/17 09:43:06;;;;;;;6.95;2.13;;;;;;;6.14;59.51;98780.91;8260300;34;20432;-75
2022/02/17 09:48:14;;;;;;;11.57;2.15;;;;;;;6.70;58.03;98774.16;8262476;34;20430;-76
2022/02/17 09:53:17;;;;;;;8.48;2.42;;;;;;;6.59;56.92;98844.47;8259476;34;20243;-74
2022/02/17 09:58:20;;;;;;;3.95;2.03;;;;;;;6.25;57.94;98819.09;8264340;34;20365;-75
2022/02/17 10:03:28;;;;;;;8.23;2.28;;;;;;;7.21;55.21;98796.22;8270867;34;20558;-76
2022/02/17 10:08:51;;;;;;;6.28;2.92;;;;;;;8.71;53.27;98837.31;8268354;34;20199;-76
2022/02/17 10:14:02;;;;;;;4.93;2.00;;;;;;;7.63;53.89;98844.84;8269753;34;20156;-76
2022/02/17 10:19:13;;;;;;;4.82;1.75;;;;;;;6.85;54.86;98862.63;8245479;34;20192;-74
2022/02/17 10:24:36;;;;;;;6.07;1.98;;;;;;;6.77;54.60;98851.81;8266255;34;20201;-74
2022/02/17 10:29:41;;;;;;;4.50;1.83;;;;;;;6.64;56.05;98876.09;8266488;34;20464;-74
2022/02/17 10:34:46;;;;;;;8.15;2.30;;;;;;;6.85;56.24;98918.69;8260760;34;20413;-75
2022/02/17 10:39:49;;;;;;;5.10;2.08;;;;;;;7.00;53.57;98911.19;8267250;34;20485;-74
2022/02/17 10:44:52;;;;;;;5.72;1.70;;;;;;;7.41;54.72;98898.59;8262981;34;20432;-75
2022/02/17 10:49:57;;;;;;;6.22;1.95;;;;;;;7.28;55.57;98942.44;8254368;34;20432;-75
2022/02/17 10:55:11;;;;;;;5.75;2.13;;;;;;;7.02;55.46;98946.59;8255457;34;20339;-74
2022/02/17 11:00:17;;;;;;;6.70;1.92;;;;;;;7.97;52.87;98983.38;8256879;34;20206;-76
2022/02/17 11:05:22;;;;;;;4.50;1.87;;;;;;;8.82;51.00;98962.94;8256991;34;20455;-75
2022/02/17 11:10:26;;;;;;;7.18;1.90;;;;;;;9.24;48.31;98978.50;8257280;34;20227;-75
2022/02/17 11:15:31;;;;;;;6.40;1.75;;;;;;;8.97;48.72;98980.22;8255798;34;20468;-74
2022/02/17 11:20:37;;;;;;;8.48;2.22;;;;;;;9.59;49.30;98979.53;8254485;34;20645;-74
2022/02/17 11:25:42;;;;;;;4.78;1.95;;;;;;;10.49;48.79;98994.59;8254994;34;20445;-75
2022/02/17 11:30:58;;;;;;;6.65;1.80;;;;;;;9.91;46.76;98990.63;8253442;34;20451;-75
2022/02/17 11:36:32;;;;;;;4.75;1.77;;;;;;;8.12;48.74;98981.97;8254849;34;20442;-74
2022/02/17 11:41:38;;;;;;;5.32;1.55;;;;;;;8.32;49.38;99019.41;8250417;34;21485;-74
2022/02/17 11:46:53;;;;;;;3.80;1.42;;;;;;;9.83;48.04;99028.06;8253183;34;20195;-75
2022/02/17 11:52:12;;;;;;;7.72;2.08;;;;;;;10.27;45.82;99030.84;8253003;34;20440;-74
2022/02/17 11:57:32;;;;;;;4.35;1.70;;;;;;;9.96;46.78;99040.28;8260459;34;20202;-76
2022/02/17 12:02:43;;;;;;;6.90;1.98;;;;;;;10.52;44.57;99023.81;8264693;34;21860;-76
2022/02/17 12:07:49;;;;;;;3.17;1.52;;;;;;;-149.37;100.00;59372.97;8258555;34;20433;-76
2022/02/17 12:12:52;;;;;;;6.07;1.52;;;;;;;11.11;43.68;99031.19;8259476;34;20446;-76
2022/02/17 12:17:57;;;;;;;5.60;2.22;;;;;;;10.78;43.52;99018.44;8234747;34;22703;-75
2022/02/17 12:23:10;;;;;;;4.30;1.70;;;;;;;10.97;43.18;99054.13;8260343;34;20191;-76
2022/02/17 12:28:15;;;;;;;10.95;2.03;;;;;;;10.24;44.04;99052.63;8268136;34;20188;-76
2022/02/17 12:33:21;;;;;;;5.13;1.73;;;;;;;10.05;44.72;99071.56;8300076;34;20471;-75
2022/02/17 12:38:28;;;;;;;5.00;2.00;;;;;;;8.20;48.00;99069.53;8286720;34;20152;-75
2022/02/17 12:43:37;;;;;;;4.28;1.48;;;;;;;7.81;49.55;99082.00;8245035;34;20427;-75
2022/02/17 12:48:41;;;;;;;7.32;1.80;;;;;;;9.11;46.43;99094.06;8267768;34;20475;-76
2022/02/17 12:53:59;;;;;;;2.65;1.50;;;;;;;9.74;45.92;99096.00;8278110;34;20140;-76
2022/02/17 12:59:05;;;;;;;2.75;1.55;;;;;;;9.18;46.08;99094.31;8270296;34;21225;-75
2022/02/17 13:04:09;;;;;;;3.60;1.70;;;;;;;8.59;47.01;99088.25;8268425;34;20221;-76
2022/02/17 13:09:17;;;;;;;2.60;1.40;;;;;;;7.98;47.88;99112.56;8269867;34;20191;-75
2022/02/17 13:14:22;;;;;;;2.20;1.58;;;;;;;7.92;47.04;99096.09;8246606;34;20173;-75
2022/02/17 13:19:36;;;;;;;5.70;1.23;;;;;;;9.02;45.60;99116.34;8238979;34;20251;-76
2022/02/17 13:24:58;;;;;;;3.17;1.65;;;;;;;8.38;47.19;99104.44;8239265;34;20507;-75
2022/02/17 13:30:04;;;;;;;2.13;1.42;;;;;;;9.68;43.09;99104.63;8239016;34;20191;-76
2022/02/17 13:35:10;;;;;;;3.30;1.65;;;;;;;8.53;44.94;99121.78;8222333;34;21084;-75
2022/02/17 13:40:17;;;;;;;4.82;1.63;;;;;;;9.20;43.77;99090.47;8214302;34;22489;-76
2022/02/17 13:45:22;;;;;;;8.15;1.67;;;;;;;9.15;44.26;99068.66;8202628;34;20222;-75
2022/02/17 13:50:26;;;;;;;4.65;1.42;;;;;;;8.02;45.02;99154.94;8228655;34;20434;-76
2022/02/17 13:55:32;;;;;;;2.00;1.33;;;;;;;9.80;42.29;99153.56;8233678;34;20686;-75
2022/02/17 14:00:37;;;;;;;3.40;1.40;;;;;;;9.59;42.12;99124.31;8230353;34;20197;-75
2022/02/17 14:05:41;;;;;;;4.07;1.98;;;;;;;9.28;43.16;99130.78;8233632;34;21286;-76
2022/02/17 14:10:46;;;;;;;5.53;2.17;;;;;;;8.24;46.47;99151.19;8217939;34;20435;-75
2022/02/17 14:15:49;;;;;;;3.67;1.80;;;;;;;8.24;47.38;99174.41;8238132;34;21179;-75
2022/02/17 14:20:52;;;;;;;4.70;1.88;;;;;;;7.71;47.14;99167.53;8246615;34;20455;-80
2022/02/17 14:25:57;;;;;;;3.78;1.58;;;;;;;7.63;46.91;99215.47;8240509;34;20450;-76
2022/02/17 14:31:00;;;;;;;4.75;1.70;;;;;;;7.48;48.12;99202.47;8240043;34;20477;-75
2022/02/17 14:36:05;;;;;;;4.70;1.33;;;;;;;7.46;47.44;99214.25;8242380;34;20460;-75
2022/02/17 14:41:11;;;;;;;5.20;1.45;;;;;;;6.99;49.01;99220.03;8255120;34;20438;-75
2022/02/17 14:46:15;;;;;;;5.15;2.13;;;;;;;6.82;50.30;99204.56;8262257;34;20689;-75
2022/02/17 14:51:21;;;;;;;3.03;1.65;;;;;;;7.23;50.50;99211.75;8238092;34;20967;-75
2022/02/17 14:56:25;;;;;;;5.70;1.23;;;;;;;7.31;51.45;99240.47;8261286;34;20135;-74
2022/02/17 15:01:28;;;;;;;3.45;1.52;;;;;;;7.14;53.25;99273.13;8260789;34;20430;-75
2022/02/17 15:06:34;;;;;;;5.43;1.58;;;;;;;7.62;55.77;99283.25;8257200;34;20207;-76
2022/02/17 15:11:39;;;;;;;6.30;1.90;;;;;;;6.76;57.33;99274.47;8259229;34;20183;-75
2022/02/17 15:16:42;;;;;;;6.50;1.77;;;;;;;7.30;55.21;99270.00;8259429;34;20516;-75
2022/02/17 15:21:45;;;;;;;4.18;1.83;;;;;;;6.92;55.15;99292.75;8258399;34;20495;-75
2022/02/17 15:26:50;;;;;;;5.70;1.60;;;;;;;6.75;55.23;99321.66;8258338;34;20437;-75
2022/02/17 15:31:53;;;;;;;6.53;1.65;;;;;;;7.16;55.20;99336.13;8260373;34;20498;-75
2022/02/17 15:36:57;;;;;;;3.40;1.40;;;;;;;6.49;57.66;99344.28;8259049;34;20495;-75
2022/02/17 15:42:01;;;;;;;2.08;1.33;;;;;;;5.35;62.95;99378.91;8258482;34;20277;-76
2022/02/17 15:47:07;;;;;;;2.97;1.35;;;;;;;5.39;62.54;99375.06;8253350;34;20552;-76
2022/02/17 15:52:10;;;;;;;3.45;1.80;;;;;;;4.91;66.67;99364.41;8227801;34;22613;-76
2022/02/17 15:57:15;;;;;;;2.50;1.30;;;;;;;4.82;68.24;99382.72;8227693;34;20913;-76
2022/02/17 16:02:18;;;;;;;2.73;1.77;;;;;;;4.76;69.16;99377.03;8233305;34;20466;-76
2022/02/17 16:07:21;;;;;;;2.63;1.30;;;;;;;4.61;71.62;99405.59;8224193;34;20497;-75
2022/02/17 16:12:26;;;;;;;5.07;1.90;;;;;;;4.50;73.10;99414.34;8214874;34;21957;-75
2022/02/17 16:17:29;;;;;;;2.97;1.63;;;;;;;4.22;73.33;99426.06;8217335;34;20227;-76
2022/02/17 16:22:33;;;;;;;6.80;2.03;;;;;;;3.98;80.57;99422.44;8217615;34;20195;-76
2022/02/17 16:27:37;;;;;;;3.25;1.85;;;;;;;3.27;82.26;99388.25;8218324;34;20155;-77
2022/02/17 16:32:41;;;;;;;3.17;1.75;;;;;;;3.59;80.57;99440.97;8217747;34;20260;-78
2022/02/17 16:37:44;;;;;;;3.90;2.63;;;;;;;3.78;78.20;99439.75;8223458;34;20180;-78
2022/02/17 16:42:49;;;;;;;6.07;2.75;;;;;;;4.27;78.26;99466.47;8218028;34;20629;-76
2022/02/17 16:47:53;;;;;;;4.95;2.05;;;;;;;3.79;76.20;99474.19;8223941;34;20219;-77
2022/02/17 16:52:57;;;;;;;2.95;1.55;;;;;;;3.99;74.30;99474.66;8217074;34;20165;-76
2022/02/17 16:58:02;;;;;;;1.20;1.10;;;;;;;3.92;74.12;99461.78;8216067;34;20878;-77
2022/02/17 17:03:05;;;;;;;5.18;1.92;;;;;;;4.31;74.74;99481.25;8215142;34;20639;-77
2022/02/17 17:08:09;;;;;;;6.18;2.00;;;;;;;4.49;74.89;99480.94;8213854;34;20633;-76
2022/02/17 17:13:14;;;;;;;5.63;2.72;;;;;;;4.35;76.16;99505.81;8215415;34;20455;-76
2022/02/17 17:18:17;;;;;;;5.25;1.98;;;;;;;4.17;75.58;99514.13;8215899;34;20188;-76
2022/02/17 17:23:20;;;;;;;9.85;2.92;;;;;;;4.07;75.67;99526.31;8228118;34;20160;-75
2022/02/17 17:28:26;;;;;;;6.30;2.80;;;;;;;4.16;74.47;99533.66;8228034;34;20603;-76
2022/02/17 17:33:29;;;;;;;5.63;2.33;;;;;;;4.02;74.13;99555.00;8230506;34;20474;-76
2022/02/17 17:38:36;;;;;;;3.35;2.28;;;;;;;4.46;73.11;99567.09;8232384;34;20480;-76
2022/02/17 17:43:41;;;;;;;6.30;2.38;;;;;;;4.25;72.60;99572.09;8234869;34;20431;-77
2022/02/17 17:48:46;;;;;;;6.25;2.40;;;;;;;4.25;72.73;99577.41;8236856;34;20188;-77
2022/02/17 17:53:49;;;;;;;7.03;2.95;;;;;;;4.30;72.32;99599.19;8238610;34;20195;-76
2022/02/17 17:58:54;;;;;;;7.68;1.95;;;;;;;4.40;72.00;99592.28;8230248;34;20344;-75
2022/02/17 18:03:59;;;;;;;6.18;3.72;;;;;;;4.34;71.60;99602.50;8228980;34;20537;-75
2022/02/17 18:09:02;;;;;;;4.97;2.03;;;;;;;4.47;70.91;99626.44;8231280;34;20247;-74
2022/02/17 18:14:08;;;;;;;8.13;2.75;;;;;;;4.58;69.36;99619.47;8222352;34;20148;-75
2022/02/17 18:19:11;;;;;;;4.88;3.13;;;;;;;4.62;69.23;99622.75;8235544;34;20430;-76
2022/02/17 18:24:15;;;;;;;5.50;1.98;;;;;;;4.65;68.22;99619.03;8240686;34;21641;-77
2022/02/17 18:29:38;;;;;;;7.97;1.90;;;;;;;4.51;68.22;99623.47;8229534;34;20428;-77
2022/02/17 18:34:41;;;;;;;5.00;2.40;;;;;;;4.81;67.00;99640.97;8225882;34;20156;-76
2022/02/17 18:39:44;;;;;;;9.93;2.15;;;;;;;4.83;65.75;99639.91;8219699;34;20451;-76
2022/02/17 18:50:14;;;;;;;4.38;1.95;;;;;;;4.57;65.25;99643.50;8219595;34;20149;-78
2022/02/17 18:55:27;;;;;;;3.72;1.65;;;;;;;4.54;65.82;99668.50;8227513;34;20445;-78
2022/02/17 19:00:35;;;;;;;5.53;1.98;;;;;;;4.46;65.74;99649.53;8224492;34;20455;-75
2022/02/17 19:05:40;;;;;;;2.92;2.17;;;;;;;4.85;64.97;99690.34;8222416;34;20432;-77
2022/02/17 19:10:44;;;;;;;2.30;1.52;;;;;;;4.57;65.74;99659.44;8219053;34;20458;-76
2022/02/17 19:15:48;;;;;;;5.05;2.40;;;;;;;4.75;64.77;99662.69;8219419;34;20463;-77
2022/02/17 19:21:31;;;;;;;5.25;2.13;;;;;;;4.77;64.19;99700.66;8757014;32;21585;-76
2022/02/17 19:26:35;;;;;;;10.23;2.40;;;;;;;4.91;63.88;99705.03;8684651;33;20183;-78
2022/02/17 19:31:40;;;;;;;8.60;2.13;;;;;;;4.84;63.83;99725.91;8684692;33;20249;-77
2022/02/17 19:36:44;;;;;;;2.58;2.20;;;;;;;4.60;64.46;99686.69;8684097;33;20215;-77
2022/02/17 19:41:47;;;;;;;3.65;2.20;;;;;;;4.57;64.89;99721.47;8684041;33;20184;-77
2022/02/17 19:46:50;;;;;;;4.97;2.00;;;;;;;4.61;64.25;99717.66;8684110;33;20218;-75
2022/02/17 19:51:55;;;;;;;2.30;1.63;;;;;;;4.95;63.83;99728.69;8683664;33;20446;-77
2022/02/17 19:56:58;;;;;;;7.85;2.30;;;;;;;4.70;64.47;99742.81;8681829;33;20199;-77
2022/02/17 20:02:01;;;;;;;5.70;2.08;;;;;;;4.84;64.18;99755.19;8684761;33;20211;-76
2022/02/17 20:07:05;;;;;;;4.85;2.53;;;;;;;4.46;65.38;99755.91;8687377;33;20187;-76
2022/02/17 20:12:15;;;;;;;5.03;1.63;;;;;;;4.44;65.31;99773.78;8685007;33;20422;-76
2022/02/17 20:17:18;;;;;;;3.30;1.60;;;;;;;4.45;64.77;99761.34;8687189;33;20433;-77
2022/02/17 20:22:23;;;;;;;6.50;2.22;;;;;;;4.66;64.25;99759.91;8693296;33;20195;-77
2022/02/17 20:27:28;;;;;;;3.00;1.67;;;;;;;4.50;63.91;99770.72;8701116;33;20176;-77
2022/02/17 20:32:32;;;;;;;1.13;0.98;;;;;;;4.65;63.52;99774.19;8675101;33;20557;-76
2022/02/17 20:37:37;;;;;;;4.93;1.80;;;;;;;4.75;63.83;99771.78;8672821;33;20462;-76
2022/02/17 20:42:41;;;;;;;9.75;2.85;;;;;;;4.81;63.22;99761.56;8671637;33;20184;-76
2022/02/17 20:53:07;;;;;;;5.20;1.88;;;;;;;5.10;63.29;99766.78;8675895;33;20188;-76
2022/02/17 20:58:10;;;;;;;7.82;3.38;;;;;;;4.96;62.85;99759.66;8672556;33;20183;-77
2022/02/17 21:03:13;;;;;;;10.82;2.40;;;;;;;4.91;62.44;99764.47;8667310;33;20257;-76
2022/02/17 21:08:17;;;;;;;2.22;1.63;;;;;;;4.93;61.70;99767.00;8667501;33;20191;-76
2022/02/17 21:13:20;;;;;;;8.63;2.50;;;;;;;4.97;61.69;99766.72;8668824;33;20188;-75
2022/02/17 21:18:23;;;;;;;6.78;2.85;;;;;;;4.93;62.16;99770.53;8667521;33;20144;-77
2022/02/17 21:23:29;;;;;;;6.07;2.20;;;;;;;4.88;62.08;99785.09;8668526;33;20654;-76
2022/02/17 21:28:33;;;;;;;11.50;2.20;;;;;;;4.84;61.98;99787.97;8666086;33;20189;-77
2022/02/17 21:33:36;;;;;;;3.70;1.77;;;;;;;5.08;61.21;99803.28;8669124;33;20338;-76
2022/02/17 21:38:41;;;;;;;6.05;2.22;;;;;;;5.22;61.14;99797.88;8668487;33;20257;-77
2022/02/17 21:43:47;;;;;;;2.20;1.45;;;;;;;5.07;61.29;99777.59;8673306;33;20233;-77
2022/02/17 21:48:51;;;;;;;2.47;1.50;;;;;;;5.10;61.68;99779.22;8667645;33;20208;-77
2022/02/17 21:54:18;;;;;;;3.40;1.40;;;;;;;4.98;62.09;99803.00;8668050;33;20299;-77
2022/02/17 21:59:23;;;;;;;5.43;2.17;;;;;;;5.16;62.21;99782.31;8668490;33;20211;-77
2022/02/17 22:04:26;;;;;;;5.80;2.03;;;;;;;4.72;63.95;99786.13;8669531;33;20916;-77
2022/02/17 22:09:30;;;;;;;7.90;2.38;;;;;;;5.03;64.62;99774.31;8669783;33;20200;-77
2022/02/17 22:14:34;;;;;;;4.95;2.03;;;;;;;4.79;66.55;99783.91;8667777;33;20573;-78
2022/02/17 22:19:37;;;;;;;9.13;2.30;;;;;;;4.76;67.08;99790.28;8674418;33;20184;-77
2022/02/17 22:24:41;;;;;;;4.32;2.00;;;;;;;4.74;67.74;99794.84;8681775;33;20180;-77
2022/02/17 22:29:44;;;;;;;9.32;2.22;;;;;;;4.60;67.86;99793.09;8670786;33;20431;-77
2022/02/17 22:34:47;;;;;;;4.70;2.05;;;;;;;4.64;67.17;99792.91;8659390;33;20537;-76
2022/02/17 22:39:54;;;;;;;3.92;2.10;;;;;;;4.76;67.34;99800.91;8660998;33;20184;-77
2022/02/17 22:44:57;;;;;;;8.15;2.40;;;;;;;4.69;67.31;99804.09;8666173;33;20526;-78
2022/02/17 22:50:00;;;;;;;5.63;2.20;;;;;;;4.76;67.20;99814.22;8667476;33;20205;-77
2022/02/17 22:55:06;;;;;;;7.68;2.90;;;;;;;4.62;68.42;99814.28;8659530;33;20130;-76
2022/02/17 23:00:11;;;;;;;8.93;2.50;;;;;;;4.40;69.27;99838.75;8659975;33;20247;-77
2022/02/17 23:05:15;;;;;;;8.20;2.67;;;;;;;3.90;75.15;99837.50;8655815;33;20133;-77
2022/02/17 23:21:04;;;;;;;6.28;2.60;;;;;;;2.87;87.12;99816.25;8657367;33;20186;-77
2022/02/17 23:26:10;;;;;;;1.20;1.17;;;;;;;2.86;86.71;99811.91;8657104;33;20137;-77
2022/02/17 23:31:14;;;;;;;8.45;2.65;;;;;;;2.91;86.38;99786.81;8658532;33;20184;-77
2022/02/17 23:36:17;;;;;;;5.20;2.42;;;;;;;2.95;85.89;99798.06;8661426;33;20638;-77
2022/02/17 23:41:22;;;;;;;2.70;2.17;;;;;;;3.05;85.28;99800.09;8664157;33;20548;-78
2022/02/17 23:46:26;;;;;;;3.97;2.47;;;;;;;3.21;84.63;99791.22;8693569;33;20297;-77
2022/02/17 23:51:29;;;;;;;4.88;3.00;;;;;;;3.19;84.29;99787.81;8681769;33;20564;-78
2022/02/17 23:56:34;;;;;;;7.90;3.63;;;;;;;3.16;83.65;99774.72;8667070;33;20825;-78
